Time;durP1;ratioP1;P1;durP2;ratioP2;P2;SDS_P1;SDS_P2;PMS_P1;PMS_P2;Temp;Humidity;BMP_temperature;BMP_pressure;BME280_temperature;BME280_humidity;BME280_pressure;Samples;Min_cycle;Max_cycle;Signal;HPM_P1;HPM_P2
2024/03/06 00:04:06;;;;;;;50.38;29.08;;;;;;;6.25;99.95;101164.22;4959877;28;20122;-83
2024/03/06 00:06:46;;;;;;;48.63;28.48;;;;;;;6.26;99.48;101158.00;4974502;29;20312;-83
2024/03/06 00:09:16;;;;;;;40.75;28.27;;;;;;;6.10;99.40;101164.28;4974322;28;20102;-83
2024/03/06 00:12:04;;;;;;;42.30;27.88;;;;;;;5.99;99.72;101173.66;4970364;29;20059;-81
2024/03/06 00:14:36;;;;;;;45.17;27.73;;;;;;;5.85;100.00;101176.22;4961926;29;20075;-84
2024/03/06 00:17:22;;;;;;;47.80;28.75;;;;;;;5.78;100.00;101172.25;4961970;29;20098;-85
2024/03/06 00:19:49;;;;;;;43.05;26.98;;;;;;;5.61;100.00;101181.09;4960649;29;20110;-85
2024/03/06 00:22:16;;;;;;;46.10;28.17;;;;;;;5.58;100.00;101184.78;4954444;28;20051;-83
2024/03/06 00:24:43;;;;;;;44.92;27.77;;;;;;;5.57;100.00;101197.97;4960624;28;20058;-84
2024/03/06 00:27:18;;;;;;;41.28;27.05;;;;;;;5.49;100.00;101193.19;4961874;29;20063;-84
2024/03/06 00:29:45;;;;;;;43.20;27.17;;;;;;;5.48;100.00;101195.88;4949360;29;20051;-84
2024/03/06 00:32:14;;;;;;;41.35;26.00;;;;;;;5.38;100.00;101199.97;4956789;28;20143;-84
2024/03/06 00:34:41;;;;;;;42.15;26.15;;;;;;;5.41;100.00;101208.50;4961136;29;20061;-84
2024/03/06 00:37:08;;;;;;;44.17;27.10;;;;;;;5.50;100.00;101205.38;4960499;29;20105;-83
2024/03/06 00:39:36;;;;;;;42.45;26.83;;;;;;;5.46;100.00;101205.63;4963788;29;20425;-83
2024/03/06 00:42:02;;;;;;;42.53;26.85;;;;;;;5.38;100.00;101206.06;4960353;28;20055;-85
2024/03/06 00:44:46;;;;;;;43.45;27.02;;;;;;;5.41;100.00;101208.50;4960358;28;20079;-83
2024/03/06 00:47:27;;;;;;;45.83;27.13;;;;;;;5.41;100.00;101212.91;4954818;28;20059;-84
2024/03/06 00:50:07;;;;;;;42.80;28.27;;;;;;;5.42;100.00;101223.31;4956798;29;20090;-82
2024/03/06 01:02:20;;;;;;;51.95;29.67;;;;;;;5.37;100.00;101219.28;4847220;29;20095;-82
2024/03/06 01:31:42;;;;;;;59.40;32.30;;;;;;;4.72;100.00;101256.88;4831109;29;20058;-83
2024/03/06 01:34:14;;;;;;;58.13;32.15;;;;;;;4.66;100.00;101249.34;4891776;29;20109;-83
2024/03/06 01:37:05;;;;;;;68.53;31.13;;;;;;;4.63;100.00;101253.88;4897694;29;20179;-81
2024/03/06 01:42:33;;;;;;;56.00;30.52;;;;;;;4.61;100.00;101253.97;4932819;29;20052;-83
2024/03/06 01:51:40;;;;;;;57.72;31.55;;;;;;;4.47;100.00;101259.94;4890920;29;20052;-82
2024/03/06 01:58:18;;;;;;;54.65;30.83;;;;;;;4.29;100.00;101251.25;4845601;29;20126;-82
2024/03/06 02:01:04;;;;;;;54.53;29.90;;;;;;;4.26;100.00;101253.19;4908702;29;20359;-83
2024/03/06 02:04:18;;;;;;;53.60;30.33;;;;;;;4.28;100.00;101256.56;4928636;29;20131;-83
2024/03/06 02:07:03;;;;;;;52.67;30.67;;;;;;;4.16;100.00;101260.66;4921355;29;20059;-83
2024/03/06 02:09:48;;;;;;;51.63;29.70;;;;;;;4.08;100.00;101257.59;4920172;29;20068;-84
2024/03/06 02:19:03;;;;;;;72.75;35.53;;;;;;;4.02;100.00;101263.97;4915792;29;20060;-82
2024/03/06 02:21:37;;;;;;;66.72;35.97;;;;;;;4.08;100.00;101272.47;4925030;29;20063;-81
2024/03/06 02:27:05;;;;;;;67.65;33.78;;;;;;;4.07;100.00;101265.53;4909149;29;20052;-82
2024/03/06 02:29:43;;;;;;;63.08;33.83;;;;;;;3.99;100.00;101265.91;4923624;29;20087;-82
2024/03/06 02:32:27;;;;;;;63.38;33.17;;;;;;;3.98;100.00;101275.53;4927643;29;20047;-80
2024/03/06 02:35:11;;;;;;;;;;;;;;;4.02;100.00;101278.84;4926693;29;20063;-82
2024/03/06 02:37:43;;;;;;;54.55;29.55;;;;;;;3.96;100.00;101272.13;4926762;29;19927;-83
2024/03/06 02:40:15;;;;;;;58.30;31.48;;;;;;;3.94;100.00;101279.22;4925260;29;20080;-83
2024/03/06 02:42:48;;;;;;;61.60;32.13;;;;;;;3.88;100.00;101273.44;4924650;29;20055;-83
2024/03/06 02:45:15;;;;;;;60.92;33.40;;;;;;;3.82;100.00;101271.97;4925604;29;20067;-82
2024/03/06 02:47:48;;;;;;;63.05;32.30;;;;;;;3.75;100.00;101270.56;4911702;29;20053;-82
2024/03/06 02:50:26;;;;;;;61.17;32.85;;;;;;;3.66;100.00;101268.38;4917718;29;20056;-83
2024/03/06 02:52:57;;;;;;;66.68;32.53;;;;;;;3.67;100.00;101264.88;4925401;29;20056;-81
2024/03/06 02:55:24;;;;;;;58.47;32.10;;;;;;;3.63;100.00;101265.94;4917568;29;20084;-81
2024/03/06 02:57:50;;;;;;;57.08;31.27;;;;;;;3.67;100.00;101263.09;4917379;29;20091;-83
2024/03/06 03:00:21;;;;;;;60.28;31.67;;;;;;;3.66;100.00;101271.00;4924686;29;20071;-81
2024/03/06 03:06:33;;;;;;;57.08;31.25;;;;;;;3.51;100.00;101277.81;4923970;29;20052;-82
2024/03/06 03:09:04;;;;;;;66.78;33.03;;;;;;;3.57;100.00;101274.91;4911086;29;20051;-81
2024/03/06 03:11:31;;;;;;;61.47;32.33;;;;;;;3.59;100.00;101273.09;4919138;29;20108;-82
2024/03/06 03:14:01;;;;;;;76.65;34.40;;;;;;;3.65;100.00;101285.03;4929954;29;20056;-81
2024/03/06 03:39:33;;;;;;;65.30;32.53;;;;;;;4.17;100.00;101292.94;4676807;30;20076;-82
2024/03/06 03:42:12;;;;;;;71.68;33.30;;;;;;;4.18;100.00;101294.63;4758250;29;20143;-82
2024/03/06 03:44:48;;;;;;;66.35;34.47;;;;;;;4.24;100.00;101295.19;4888451;29;20427;-82
2024/03/06 03:47:46;;;;;;;66.32;34.17;;;;;;;4.21;100.00;101295.34;4921459;29;20048;-79
2024/03/06 04:12:05;;;;;;;69.35;32.38;;;;;;;3.90;100.00;101332.66;5001929;23;20142;-83
2024/03/06 04:14:32;;;;;;;127.28;34.42;;;;;;;3.93;100.00;101337.75;4979614;28;20081;-77
2024/03/06 04:16:59;;;;;;;95.35;31.70;;;;;;;3.93;100.00;101342.13;4968558;28;20150;-79
2024/03/06 04:19:25;;;;;;;102.45;30.25;;;;;;;3.86;100.00;101335.50;4980103;28;20057;-83
2024/03/06 04:21:54;;;;;;;109.13;30.15;;;;;;;3.91;100.00;101343.97;4981406;28;20050;-85
2024/03/06 04:24:20;;;;;;;68.10;28.60;;;;;;;3.95;100.00;101338.53;4985338;28;20085;-83
2024/03/06 04:26:47;;;;;;;52.28;26.80;;;;;;;4.00;100.00;101348.78;4982106;28;20229;-83
2024/03/06 04:29:16;;;;;;;47.47;25.90;;;;;;;3.94;100.00;101342.06;4981700;28;20058;-84
2024/03/06 04:31:46;;;;;;;50.85;27.08;;;;;;;3.97;100.00;101352.41;4977165;28;20073;-84
2024/03/06 04:34:13;;;;;;;45.72;26.85;;;;;;;3.88;100.00;101339.72;4982616;28;20109;-84
2024/03/06 04:36:40;;;;;;;39.80;24.92;;;;;;;3.90;100.00;101351.00;4984077;28;20398;-84
2024/03/06 04:39:08;;;;;;;37.60;23.80;;;;;;;3.83;100.00;101365.28;4982392;28;20488;-83
2024/03/06 04:41:35;;;;;;;38.53;23.73;;;;;;;3.79;100.00;101367.22;4977749;28;20047;-84
2024/03/06 04:44:06;;;;;;;43.17;24.35;;;;;;;3.86;100.00;101373.00;4983059;28;20059;-83
2024/03/06 04:46:33;;;;;;;39.53;24.05;;;;;;;3.81;100.00;101367.13;4980822;28;20098;-84
2024/03/06 04:49:05;;;;;;;40.03;23.40;;;;;;;3.85;100.00;101371.31;4974649;28;20114;-83
2024/03/06 04:51:32;;;;;;;41.72;24.27;;;;;;;3.93;100.00;101366.56;4980420;28;20047;-85
2024/03/06 04:54:01;;;;;;;41.83;24.20;;;;;;;3.98;100.00;101366.34;4983017;28;20465;-83
2024/03/06 04:56:29;;;;;;;41.22;22.95;;;;;;;4.01;100.00;101376.66;4984414;28;20089;-84
2024/03/06 04:59:02;;;;;;;39.28;22.75;;;;;;;4.00;100.00;101375.81;4983795;28;20489;-83
2024/03/06 05:01:29;;;;;;;38.88;21.10;;;;;;;4.07;100.00;101381.63;4984628;28;20082;-83
2024/03/06 05:04:08;;;;;;;40.05;22.15;;;;;;;4.18;100.00;101388.94;4977913;28;20061;-82
2024/03/06 05:06:35;;;;;;;36.72;21.10;;;;;;;4.25;100.00;101383.34;4984784;28;20114;-83
2024/03/06 05:09:06;;;;;;;37.08;21.77;;;;;;;4.11;100.00;101379.66;4983551;28;20134;-84
2024/03/06 05:11:37;;;;;;;32.30;20.38;;;;;;;4.16;100.00;101391.66;4983877;28;20050;-84
2024/03/06 05:14:03;;;;;;;32.83;20.13;;;;;;;4.18;100.00;101399.41;4985408;28;20055;-83
2024/03/06 05:16:30;;;;;;;34.30;20.02;;;;;;;4.09;100.00;101395.47;4984316;28;20082;-84
2024/03/06 05:18:59;;;;;;;33.40;19.95;;;;;;;4.15;100.00;101389.06;4982458;28;20066;-83
2024/03/06 05:21:26;;;;;;;30.55;19.02;;;;;;;4.16;100.00;101399.50;4982959;28;20047;-83
2024/03/06 05:23:52;;;;;;;36.63;18.98;;;;;;;4.10;100.00;101401.56;4983801;28;20070;-84
2024/03/06 05:26:19;;;;;;;32.95;18.17;;;;;;;4.09;100.00;101400.72;4982180;28;20061;-83
2024/03/06 05:28:47;;;;;;;29.35;18.00;;;;;;;4.10;100.00;101402.41;4978836;28;20082;-83
2024/03/06 05:31:19;;;;;;;29.95;18.17;;;;;;;4.17;100.00;101402.97;4981539;28;20065;-82
2024/03/06 05:33:48;;;;;;;32.03;18.52;;;;;;;4.20;100.00;101402.81;4981449;28;20057;-82
2024/03/06 05:36:15;;;;;;;32.05;19.05;;;;;;;4.12;100.00;101402.34;4979233;28;20134;-82
2024/03/06 05:38:42;;;;;;;30.23;18.48;;;;;;;4.08;100.00;101409.50;4970616;28;20058;-78
2024/03/06 05:41:09;;;;;;;26.83;15.70;;;;;;;4.02;100.00;101410.66;4973744;28;20054;-82
2024/03/06 05:43:36;;;;;;;28.38;16.92;;;;;;;3.99;100.00;101413.41;4980485;28;20511;-82
2024/03/06 05:46:04;;;;;;;24.83;15.07;;;;;;;3.99;100.00;101416.00;4984263;28;20050;-82
2024/03/06 05:48:33;;;;;;;20.45;14.00;;;;;;;3.98;100.00;101418.72;4980136;28;20113;-83
2024/03/06 05:51:00;;;;;;;21.02;13.90;;;;;;;3.89;100.00;101424.38;4979340;28;20047;-82
2024/03/06 05:53:27;;;;;;;18.65;12.88;;;;;;;3.88;100.00;101423.50;4978595;28;20047;-82
2024/03/06 05:56:05;;;;;;;18.33;12.57;;;;;;;3.80;100.00;101430.91;4981292;28;20477;-83
2024/03/06 05:58:32;;;;;;;20.52;11.88;;;;;;;3.88;100.00;101427.91;4981297;28;20055;-82
2024/03/06 06:03:44;;;;;;;16.70;10.75;;;;;;;3.94;100.00;101436.34;4974313;28;20146;-81
2024/03/06 06:06:11;;;;;;;15.52;10.45;;;;;;;3.98;100.00;101458.00;4979496;28;20090;-83
2024/03/06 06:08:37;;;;;;;15.77;10.40;;;;;;;4.02;100.00;101447.31;4981213;28;20074;-84
2024/03/06 06:11:05;;;;;;;16.30;11.18;;;;;;;4.09;100.00;101449.63;4980742;28;20430;-81
2024/03/06 06:13:31;;;;;;;15.07;10.35;;;;;;;3.99;100.00;101462.31;4979569;28;20422;-80
2024/03/06 06:15:59;;;;;;;18.90;10.75;;;;;;;4.07;100.00;101472.44;4981295;28;20137;-81
2024/03/06 06:18:25;;;;;;;20.38;11.15;;;;;;;4.07;100.00;101465.44;4982301;28;20085;-81
2024/03/06 06:20:56;;;;;;;19.33;11.15;;;;;;;4.04;100.00;101471.63;4982660;28;20110;-82
2024/03/06 06:23:23;;;;;;;17.05;11.63;;;;;;;4.06;100.00;101474.19;4974904;28;20130;-80
2024/03/06 06:25:50;;;;;;;15.50;10.38;;;;;;;4.03;100.00;101475.19;4972227;28;20441;-78
2024/03/06 06:28:16;;;;;;;15.25;10.50;;;;;;;4.03;100.00;101476.97;4981635;28;20046;-77
2024/03/06 06:30:43;;;;;;;15.00;9.32;;;;;;;3.97;100.00;101483.34;4980117;28;20391;-80
2024/03/06 06:33:10;;;;;;;14.70;9.35;;;;;;;3.94;99.51;101478.22;4980040;28;20126;-79
2024/03/06 06:35:37;;;;;;;21.38;14.27;;;;;;;3.92;100.00;101480.06;4972907;28;20122;-79
2024/03/06 06:38:05;;;;;;;11.98;8.95;;;;;;;3.93;100.00;101484.41;4980826;28;20110;-80
2024/03/06 06:40:36;;;;;;;15.02;9.88;;;;;;;3.87;100.00;101483.81;4975960;28;20065;-80
2024/03/06 06:43:11;;;;;;;13.02;10.30;;;;;;;3.83;100.00;101472.63;4974875;28;20081;-78
2024/03/06 06:46:24;;;;;;;;;;;;;;;;;;;;;
2024/03/06 06:49:09;;;;;;;13.95;8.15;;;;;;;3.88;100.00;101499.44;4976055;28;20042;-80
2024/03/06 06:51:39;;;;;;;12.20;8.70;;;;;;;3.95;100.00;101500.88;4974888;28;20047;-79
2024/03/06 06:54:10;;;;;;;13.57;8.68;;;;;;;3.96;99.62;101499.94;4982772;28;20054;-80
2024/03/06 06:56:43;;;;;;;13.80;9.32;;;;;;;3.99;99.64;101493.72;4977891;28;20465;-79
2024/03/06 06:59:13;;;;;;;14.27;9.02;;;;;;;4.15;100.00;101514.81;4973461;28;20051;-80
2024/03/06 07:01:41;;;;;;;14.85;9.23;;;;;;;4.31;100.00;101505.31;4983004;28;20052;-80
2024/03/06 07:11:01;;;;;;;13.82;9.85;;;;;;;5.66;96.63;101517.78;5012833;23;20049;-81
2024/03/06 07:14:22;;;;;;;11.23;8.27;;;;;;;5.81;90.46;101518.78;4964113;29;20051;-80
2024/03/06 07:20:08;;;;;;;11.40;8.07;;;;;;;5.42;90.76;101526.97;4927248;28;20051;-81
2024/03/06 07:22:55;;;;;;;9.55;7.15;;;;;;;5.93;90.08;101531.28;4963890;29;20057;-81
2024/03/06 07:25:48;;;;;;;13.95;7.60;;;;;;;6.35;85.31;101506.22;4959892;23;20463;-77
2024/03/06 07:31:27;;;;;;;9.98;6.95;;;;;;;7.87;82.34;101516.59;4917610;29;20118;-77
2024/03/06 07:34:02;;;;;;;8.93;6.45;;;;;;;8.91;78.67;101528.41;4950129;29;20054;-76
2024/03/06 07:39:55;;;;;;;10.45;6.43;;;;;;;9.33;72.96;101534.38;4945805;28;20102;-78
2024/03/06 07:42:32;;;;;;;9.32;6.22;;;;;;;9.51;72.11;101512.03;4952753;28;20059;-78
2024/03/06 07:51:51;;;;;;;13.90;8.15;;;;;;;7.00;80.51;101551.59;4826250;29;20054;-79
2024/03/06 07:54:20;;;;;;;19.15;8.70;;;;;;;6.42;82.99;101570.66;4890001;29;20132;-77
2024/03/06 07:57:11;;;;;;;15.02;8.48;;;;;;;6.14;84.92;101581.00;4921305;28;20135;-77
2024/03/06 07:59:40;;;;;;;19.45;9.48;;;;;;;6.19;85.62;101576.34;4962220;28;20055;-78
2024/03/06 08:02:14;;;;;;;18.95;8.85;;;;;;;5.87;87.12;101575.38;4965205;28;20054;-77
2024/03/06 08:04:42;;;;;;;19.83;9.75;;;;;;;6.13;86.83;101571.41;4953572;29;20079;-77
2024/03/06 08:10:18;;;;;;;13.23;8.52;;;;;;;6.51;85.21;101585.94;4946206;29;20055;-80
2024/03/06 08:12:50;;;;;;;12.07;8.70;;;;;;;6.80;84.00;101583.47;4951748;29;20482;-81
2024/03/06 08:15:17;;;;;;;11.55;7.65;;;;;;;6.52;84.66;101592.06;4945905;29;20426;-81
2024/03/06 08:17:46;;;;;;;12.93;8.00;;;;;;;6.65;85.37;101594.84;4957734;29;20114;-81
2024/03/06 08:20:23;;;;;;;12.98;8.45;;;;;;;6.86;82.76;101582.28;4955865;29;20126;-79
2024/03/06 08:23:01;;;;;;;13.18;8.75;;;;;;;7.37;82.16;101578.44;4960319;29;20134;-79
2024/03/06 08:25:37;;;;;;;12.57;8.95;;;;;;;8.40;78.96;101580.13;4959228;29;20122;-79
2024/03/06 08:28:07;;;;;;;10.48;7.70;;;;;;;9.13;75.54;101596.47;4959481;28;20051;-79
2024/03/06 08:30:39;;;;;;;10.07;7.55;;;;;;;9.18;73.82;101585.63;4961171;28;20058;-79
2024/03/06 08:33:11;;;;;;;13.75;8.35;;;;;;;9.40;74.34;101582.41;4959588;28;20075;-79
2024/03/06 08:35:42;;;;;;;21.20;8.10;;;;;;;9.91;72.88;101583.28;4950167;29;20075;-78
2024/03/06 08:38:17;;;;;;;13.95;9.55;;;;;;;9.55;71.77;101598.06;4948348;29;20114;-80
2024/03/06 08:40:45;;;;;;;16.08;8.70;;;;;;;9.40;72.28;101601.72;4953257;29;20051;-78
2024/03/06 08:43:12;;;;;;;13.00;7.93;;;;;;;10.06;69.27;101598.06;4957781;28;20383;-77
2024/03/06 08:45:39;;;;;;;12.50;7.85;;;;;;;10.32;68.85;101598.94;4958784;28;20055;-80
2024/03/06 08:48:06;;;;;;;12.63;7.70;;;;;;;10.21;70.47;101598.78;4954052;28;20094;-78
2024/03/06 08:50:33;;;;;;;10.55;7.97;;;;;;;9.99;70.20;101607.38;4951233;29;20168;-79
2024/03/06 08:53:01;;;;;;;11.70;7.50;;;;;;;9.69;71.78;101606.84;4946742;29;20102;-78
2024/03/06 08:55:28;;;;;;;9.98;7.40;;;;;;;10.35;69.64;101601.34;4954140;28;20051;-78
2024/03/06 08:57:55;;;;;;;9.10;7.18;;;;;;;10.61;69.79;101604.78;4953747;29;20059;-77
2024/03/06 09:00:23;;;;;;;12.43;7.75;;;;;;;10.24;67.59;101600.38;4950472;28;20556;-77
2024/03/06 09:02:49;;;;;;;12.13;7.60;;;;;;;9.81;68.91;101608.66;4953520;28;20047;-78
2024/03/06 09:05:16;;;;;;;14.63;9.00;;;;;;;9.99;69.24;101611.81;4955039;29;20509;-78
2024/03/06 09:07:43;;;;;;;12.90;9.32;;;;;;;10.15;70.70;101604.53;4953416;28;20093;-78
2024/03/06 09:10:12;;;;;;;15.65;10.55;;;;;;;10.56;69.79;101606.91;4955963;28;20047;-77
2024/03/06 09:12:38;;;;;;;15.00;9.68;;;;;;;10.59;69.57;101624.38;4956434;29;20100;-78
2024/03/06 09:15:07;;;;;;;14.15;9.07;;;;;;;10.51;68.77;101611.69;4956856;28;20127;-77
2024/03/06 09:17:34;;;;;;;20.65;13.32;;;;;;;10.27;71.90;101618.72;4946914;28;20051;-78
2024/03/06 09:20:09;;;;;;;17.50;11.35;;;;;;;10.20;71.26;101622.72;4952572;28;20058;-79
2024/03/06 09:22:36;;;;;;;18.23;11.25;;;;;;;10.27;71.06;101616.94;4953591;28;20051;-79
2024/03/06 09:25:03;;;;;;;24.10;12.13;;;;;;;10.12;71.32;101620.59;4953206;28;20532;-80
2024/03/06 09:27:31;;;;;;;19.05;12.25;;;;;;;10.01;70.25;101618.72;4955042;28;20114;-79
2024/03/06 09:29:58;;;;;;;27.05;15.40;;;;;;;9.25;71.97;101631.81;4953641;28;20173;-77
2024/03/06 09:32:26;;;;;;;20.23;14.05;;;;;;;8.89;75.93;101635.91;4954489;28;20134;-78
2024/03/06 09:34:52;;;;;;;23.08;13.48;;;;;;;9.22;74.52;101634.66;4938598;29;20417;-78
2024/03/06 09:37:19;;;;;;;23.83;14.15;;;;;;;9.18;74.69;101631.34;4953449;29;20110;-78
2024/03/06 09:39:47;;;;;;;21.75;13.10;;;;;;;9.19;75.02;101627.75;4953660;28;20140;-78
2024/03/06 09:42:13;;;;;;;22.02;13.48;;;;;;;9.37;74.67;101633.63;4953498;28;20090;-77
2024/03/06 09:44:42;;;;;;;22.20;12.77;;;;;;;9.37;74.66;101636.25;4945406;28;20167;-79
2024/03/06 09:47:13;;;;;;;30.00;18.02;;;;;;;9.24;73.81;101648.59;4949457;28;20446;-79
2024/03/06 09:49:41;;;;;;;26.45;14.73;;;;;;;9.25;74.30;101645.03;4950741;28;20130;-78
2024/03/06 09:52:08;;;;;;;27.23;15.40;;;;;;;9.47;74.93;101647.94;4953899;28;20134;-79
2024/03/06 09:54:35;;;;;;;27.75;16.60;;;;;;;9.51;74.29;101649.44;4946158;28;20474;-79
2024/03/06 09:57:01;;;;;;;28.27;17.73;;;;;;;9.76;72.97;101653.06;4958886;28;20485;-79
2024/03/06 09:59:28;;;;;;;27.90;17.08;;;;;;;9.72;73.77;101647.13;4953930;28;20145;-78
2024/03/06 10:01:58;;;;;;;39.45;18.65;;;;;;;9.66;73.19;101652.00;4953729;28;20047;-79
2024/03/06 10:04:25;;;;;;;44.67;20.85;;;;;;;9.35;73.79;101648.75;4945515;28;20428;-77
2024/03/06 10:06:54;;;;;;;52.03;22.30;;;;;;;9.17;74.11;101665.78;4953519;28;20247;-77
2024/03/06 10:09:21;;;;;;;48.90;20.95;;;;;;;9.32;74.59;101655.06;4952688;28;20055;-77
2024/03/06 10:11:48;;;;;;;29.63;18.65;;;;;;;9.57;74.55;101651.66;4951670;28;20549;-77
2024/03/06 10:14:15;;;;;;;30.67;18.30;;;;;;;9.75;72.76;101661.94;4953163;28;20051;-77
2024/03/06 10:16:57;;;;;;;26.67;19.63;;;;;;;9.46;74.25;101655.94;4962816;28;20497;-79
2024/03/06 10:19:27;;;;;;;29.83;20.38;;;;;;;9.62;73.51;101654.00;4965460;28;20590;-79
2024/03/06 10:21:54;;;;;;;30.02;19.10;;;;;;;9.87;73.13;101658.47;4963175;28;20069;-78
2024/03/06 10:24:23;;;;;;;28.83;18.92;;;;;;;10.04;70.90;101663.44;4961727;28;20082;-79
2024/03/06 10:26:50;;;;;;;29.13;18.17;;;;;;;9.98;71.45;101663.88;4966503;28;20047;-78
2024/03/06 10:29:19;;;;;;;26.33;17.58;;;;;;;10.08;71.88;101670.22;4970005;28;20082;-78
2024/03/06 10:31:49;;;;;;;28.45;19.17;;;;;;;9.98;71.78;101669.16;4971429;28;20314;-79
2024/03/06 10:34:18;;;;;;;28.75;19.92;;;;;;;9.98;71.63;101671.81;4966278;28;20065;-78
2024/03/06 10:36:45;;;;;;;26.15;18.63;;;;;;;10.04;71.23;101668.72;4958023;28;20126;-79
2024/03/06 10:39:13;;;;;;;27.48;17.75;;;;;;;10.04;71.60;101662.59;4959559;28;20057;-78
2024/03/06 10:41:41;;;;;;;28.25;18.15;;;;;;;10.11;70.08;101675.31;4959209;28;20051;-78
2024/03/06 10:44:13;;;;;;;28.65;17.77;;;;;;;9.90;69.70;101674.13;4955634;28;20521;-79
2024/03/06 10:46:44;;;;;;;25.33;17.88;;;;;;;10.16;69.99;101671.50;4959134;28;20082;-79
2024/03/06 10:49:12;;;;;;;27.08;17.05;;;;;;;10.32;69.58;101677.47;4958680;29;20059;-79
2024/03/06 10:51:43;;;;;;;27.98;18.25;;;;;;;10.15;68.96;101673.28;4956940;29;20075;-78
2024/03/06 10:54:10;;;;;;;28.13;17.33;;;;;;;10.41;69.04;101668.88;4956296;28;20082;-77
2024/03/06 10:56:41;;;;;;;26.20;17.38;;;;;;;11.00;68.95;101671.69;4956358;28;20452;-78
2024/03/06 10:59:10;;;;;;;22.73;16.23;;;;;;;10.87;68.82;101671.75;4958894;28;20057;-79
2024/03/06 11:01:37;;;;;;;30.17;17.88;;;;;;;10.55;68.68;101668.75;4962730;28;20132;-80
2024/03/06 11:04:04;;;;;;;25.90;17.85;;;;;;;10.47;69.23;101670.25;4962756;28;20130;-78
2024/03/06 11:06:33;;;;;;;35.30;19.95;;;;;;;10.50;69.72;101680.63;4962292;28;20466;-78
2024/03/06 11:09:02;;;;;;;26.83;18.92;;;;;;;10.61;68.98;101676.25;4962298;28;20059;-79
2024/03/06 11:11:28;;;;;;;29.52;18.42;;;;;;;10.93;67.64;101677.53;4962103;28;20466;-79
2024/03/06 11:13:57;;;;;;;25.25;18.63;;;;;;;10.97;66.20;101684.31;4954462;28;20051;-79
2024/03/06 11:16:28;;;;;;;28.08;19.10;;;;;;;11.23;66.36;101679.78;4960088;28;20098;-78
2024/03/06 11:19:06;;;;;;;31.27;20.70;;;;;;;11.62;65.07;101681.28;4955784;28;20522;-78
2024/03/06 11:21:33;;;;;;;35.20;23.38;;;;;;;12.04;64.53;101671.88;4957459;29;20061;-78
2024/03/06 11:24:21;;;;;;;41.50;26.73;;;;;;;11.52;66.75;101689.09;4950490;28;20047;-78
2024/03/06 11:26:48;;;;;;;41.28;27.95;;;;;;;11.53;67.43;101680.16;4959888;29;20083;-78
2024/03/06 11:29:17;;;;;;;44.85;28.00;;;;;;;11.12;69.55;101678.75;4960213;28;20130;-79
2024/03/06 11:32:06;;;;;;;37.97;26.40;;;;;;;11.33;67.45;101681.63;4954925;28;20059;-79
2024/03/06 11:34:33;;;;;;;39.75;25.90;;;;;;;11.40;67.51;101682.03;4958654;28;20058;-78
2024/03/06 11:37:00;;;;;;;39.78;26.67;;;;;;;11.79;66.14;101678.22;4958016;28;20047;-79
2024/03/06 11:39:36;;;;;;;29.05;20.02;;;;;;;11.80;62.52;101674.59;4956730;28;20445;-78
2024/03/06 11:42:08;;;;;;;27.50;20.23;;;;;;;11.55;62.12;101678.22;4957476;28;20051;-79
2024/03/06 11:44:35;;;;;;;26.13;19.58;;;;;;;11.42;61.71;101680.09;4957457;28;20533;-78
2024/03/06 11:47:03;;;;;;;27.85;18.60;;;;;;;11.42;61.88;101674.81;4957888;28;20485;-78
2024/03/06 11:49:33;;;;;;;22.17;17.27;;;;;;;11.32;59.96;101684.41;4949430;28;20154;-79
2024/03/06 11:52:02;;;;;;;24.55;17.67;;;;;;;11.48;61.25;101677.00;4956005;28;20079;-78
2024/03/06 11:54:29;;;;;;;24.67;17.85;;;;;;;11.42;61.02;101677.44;4957136;28;20140;-78
2024/03/06 11:56:59;;;;;;;24.23;17.73;;;;;;;11.80;62.64;101676.41;4956179;28;20043;-78
2024/03/06 11:59:26;;;;;;;21.15;17.25;;;;;;;11.79;59.51;101680.03;4955589;28;20051;-78
2024/03/06 12:01:54;;;;;;;19.17;14.60;;;;;;;11.65;57.41;101675.72;4955461;28;20434;-78
2024/03/06 12:04:22;;;;;;;20.63;14.40;;;;;;;11.67;57.25;101672.97;4947039;28;20086;-78
2024/03/06 12:06:49;;;;;;;17.92;14.30;;;;;;;11.25;57.40;101672.53;4952622;28;20406;-78
2024/03/06 12:09:16;;;;;;;19.80;14.75;;;;;;;11.52;57.11;101675.81;4950195;29;20482;-77
2024/03/06 12:11:44;;;;;;;18.85;15.00;;;;;;;11.27;57.59;101671.50;4946639;28;20134;-78
2024/03/06 12:14:16;;;;;;;33.20;22.95;;;;;;;11.71;60.66;101671.78;4954294;28;20051;-78
2024/03/06 12:16:44;;;;;;;26.30;20.67;;;;;;;12.07;60.52;101665.50;4954634;28;20047;-78
2024/03/06 12:19:11;;;;;;;29.60;23.00;;;;;;;11.82;60.78;101674.47;4954404;28;20605;-78
2024/03/06 12:21:39;;;;;;;36.03;24.48;;;;;;;11.74;62.63;101676.84;4952605;28;20133;-79
2024/03/06 12:24:07;;;;;;;33.47;24.15;;;;;;;12.21;59.89;101675.91;4947665;28;20126;-78
2024/03/06 12:26:34;;;;;;;28.80;20.65;;;;;;;12.14;58.85;101677.31;4954075;28;20585;-79
2024/03/06 12:29:08;;;;;;;21.30;16.70;;;;;;;12.04;57.03;101671.88;4954035;28;20089;-77
2024/03/06 12:31:38;;;;;;;22.73;16.73;;;;;;;11.76;57.43;101677.59;4954965;28;20426;-79
2024/03/06 12:34:04;;;;;;;27.35;20.58;;;;;;;11.83;61.53;101678.81;4954130;28;20138;-79
2024/03/06 12:36:32;;;;;;;26.70;20.20;;;;;;;11.97;59.44;101683.94;4945662;28;20130;-78
2024/03/06 12:39:00;;;;;;;21.20;16.42;;;;;;;11.83;56.90;101679.69;4954090;28;20047;-79
2024/03/06 12:41:27;;;;;;;30.25;20.15;;;;;;;11.76;59.09;101674.94;4954361;28;20510;-77
2024/03/06 12:43:55;;;;;;;27.55;20.17;;;;;;;11.30;60.22;101681.88;4952965;28;20062;-78
2024/03/06 12:46:22;;;;;;;30.30;22.65;;;;;;;11.44;61.70;101680.00;4953606;29;20510;-78
2024/03/06 12:48:51;;;;;;;31.90;23.88;;;;;;;11.37;61.83;101684.91;4953887;28;20059;-79
2024/03/06 12:51:18;;;;;;;31.58;22.58;;;;;;;11.24;61.66;101677.00;4954226;28;20470;-78
2024/03/06 12:53:44;;;;;;;31.83;21.80;;;;;;;11.29;61.55;101680.16;4953848;28;20150;-80
2024/03/06 12:56:11;;;;;;;32.30;22.67;;;;;;;11.18;62.12;101672.16;4955392;28;20142;-79
2024/03/06 12:58:38;;;;;;;30.02;21.13;;;;;;;11.27;60.97;101676.78;4957432;28;20498;-78
2024/03/06 13:01:05;;;;;;;32.58;23.13;;;;;;;11.45;61.40;101677.22;4960668;28;20130;-80
2024/03/06 13:03:32;;;;;;;32.05;22.38;;;;;;;11.10;60.91;101680.66;4951135;28;20051;-79
2024/03/06 13:06:00;;;;;;;29.88;21.70;;;;;;;10.94;61.59;101679.22;4960203;28;20119;-79
2024/03/06 13:08:27;;;;;;;31.02;22.92;;;;;;;11.04;61.98;101673.19;4959777;28;20514;-79
2024/03/06 13:10:54;;;;;;;28.38;21.65;;;;;;;11.17;61.62;101674.94;4959592;28;20109;-79
2024/03/06 13:13:23;;;;;;;34.67;22.17;;;;;;;11.54;61.92;101668.59;4959920;29;20066;-80
2024/03/06 13:15:52;;;;;;;32.78;22.98;;;;;;;11.24;61.40;101671.69;4952274;28;20082;-80
2024/03/06 13:18:19;;;;;;;28.83;20.83;;;;;;;10.93;60.62;101677.53;4959385;28;20098;-79
2024/03/06 13:20:46;;;;;;;30.30;22.60;;;;;;;10.85;62.03;101670.19;4959964;28;20097;-80
2024/03/06 13:23:14;;;;;;;29.15;20.80;;;;;;;10.82;61.35;101665.94;4959289;28;20585;-80
2024/03/06 13:25:41;;;;;;;26.50;20.15;;;;;;;10.86;61.19;101666.56;4982865;23;20078;-81
2024/03/06 13:28:08;;;;;;;30.17;21.40;;;;;;;10.96;61.43;101672.88;4961180;29;20051;-81
2024/03/06 13:30:35;;;;;;;30.98;21.30;;;;;;;10.96;61.33;101670.22;4963961;28;20051;-81
2024/03/06 13:33:02;;;;;;;30.80;21.80;;;;;;;10.86;61.26;101671.88;4958864;28;20106;-80
2024/03/06 13:35:28;;;;;;;29.40;20.55;;;;;;;10.87;61.75;101673.53;4963273;28;20055;-79
2024/03/06 13:37:55;;;;;;;24.38;18.75;;;;;;;10.76;60.59;101676.97;4964678;29;20055;-81
2024/03/06 13:40:25;;;;;;;29.02;21.02;;;;;;;10.91;60.24;101676.81;4968383;28;20058;-83
2024/03/06 13:42:52;;;;;;;25.95;19.15;;;;;;;10.75;59.90;101674.41;4954750;29;20150;-82
2024/03/06 13:45:19;;;;;;;28.48;19.63;;;;;;;11.02;59.16;101676.88;4964187;28;20647;-81
2024/03/06 13:47:46;;;;;;;25.98;19.33;;;;;;;11.25;59.67;101677.84;4954360;29;20467;-81
2024/03/06 13:50:16;;;;;;;20.55;16.83;;;;;;;11.34;57.22;101674.50;4953439;29;20079;-80